createdAt,value
2018-04-18T00:00:04.832Z,8.12
2018-04-18T00:01:04.812Z,8.10
2018-04-18T00:02:04.823Z,8.18
2018-04-18T00:03:04.801Z,8.10
2018-04-18T00:04:04.800Z,8.16
2018-04-18T00:05:04.734Z,8.18
2018-04-18T00:06:04.741Z,8.08
2018-04-18T00:07:04.695Z,8.08
2018-04-18T00:08:04.682Z,8.05
2018-04-18T00:09:04.649Z,8.06
2018-04-18T00:10:04.636Z,7.98
2018-04-18T00:11:04.599Z,8.01
2018-04-18T00:12:04.609Z,8.05
2018-04-18T00:13:04.589Z,8.03
2018-04-18T00:14:04.584Z,7.98
2018-04-18T00:15:04.515Z,8.05
2018-04-18T00:16:04.541Z,8.05
2018-04-18T00:17:04.501Z,7.93
2018-04-18T00:18:04.486Z,7.93
2018-04-18T00:19:04.474Z,7.90
2018-04-18T00:20:04.416Z,7.90
2018-04-18T00:21:04.411Z,7.90
2018-04-18T00:22:04.425Z,7.87
2018-04-18T00:23:04.389Z,7.91
2018-04-18T00:24:04.361Z,7.82
2018-04-18T00:25:04.345Z,7.77
2018-04-18T00:26:04.341Z,7.83
2018-04-18T00:27:04.257Z,7.83
2018-04-18T00:28:04.276Z,7.75
2018-04-18T00:29:04.253Z,7.83
2018-04-18T00:30:04.194Z,7.75
2018-04-18T00:31:04.209Z,7.80
2018-04-18T00:32:04.182Z,7.70
2018-04-18T00:33:04.142Z,7.69
2018-04-18T00:34:04.111Z,7.67
2018-04-18T00:35:04.627Z,7.57
2018-04-18T00:36:04.112Z,7.54
2018-04-18T00:37:04.057Z,7.40
2018-04-18T00:38:04.040Z,7.38
2018-04-18T00:39:04.026Z,7.24
2018-04-18T00:40:04.060Z,7.36
2018-04-18T00:41:04.044Z,7.33
2018-04-18T00:42:04.039Z,7.33
2018-04-18T00:43:04.012Z,7.24
2018-04-18T00:44:03.980Z,7.39
2018-04-18T00:45:03.896Z,7.42
2018-04-18T00:46:03.894Z,7.42
2018-04-18T00:47:03.906Z,7.43
2018-04-18T00:48:03.833Z,7.40
2018-04-18T00:49:03.805Z,7.42
2018-04-18T00:50:03.807Z,7.42
2018-04-18T00:51:03.801Z,7.56
2018-04-18T00:52:03.750Z,7.53
2018-04-18T00:53:03.755Z,7.58
2018-04-18T00:54:03.738Z,7.54
2018-04-18T00:55:03.697Z,7.51
2018-04-18T00:56:03.774Z,7.40
2018-04-18T00:57:03.711Z,7.39
2018-04-18T00:58:03.673Z,7.45
2018-04-18T00:59:03.646Z,7.36
2018-04-18T01:00:03.649Z,7.48
2018-04-18T01:01:03.586Z,7.40
2018-04-18T01:02:03.570Z,7.43
2018-04-18T01:03:03.570Z,7.47
2018-04-18T01:04:03.487Z,7.43
2018-04-18T01:05:03.505Z,7.45
2018-04-18T01:06:03.512Z,7.45
2018-04-18T01:07:03.426Z,7.51
2018-04-18T01:08:03.427Z,7.45
2018-04-18T01:09:03.458Z,7.39
2018-04-18T01:10:03.432Z,7.50
2018-04-18T01:11:03.408Z,7.43
2018-04-18T01:12:03.351Z,7.50
2018-04-18T01:13:03.360Z,7.53
2018-04-18T01:14:03.318Z,7.40
2018-04-18T01:15:03.266Z,7.40
2018-04-18T01:16:03.258Z,7.38
2018-04-18T01:17:03.263Z,7.38
2018-04-18T01:18:03.286Z,7.38
2018-04-18T01:19:03.272Z,7.33
2018-04-18T01:20:03.192Z,7.31
2018-04-18T01:21:03.204Z,7.24
2018-04-18T01:22:03.182Z,7.29
2018-04-18T01:23:03.107Z,7.25
2018-04-18T01:24:03.115Z,7.33
2018-04-18T01:25:03.116Z,7.31
2018-04-18T01:26:03.165Z,7.29
2018-04-18T01:27:03.113Z,7.23
2018-04-18T01:28:03.057Z,7.23
2018-04-18T01:29:03.688Z,7.35
2018-04-18T01:30:03.020Z,7.28
2018-04-18T01:31:03.021Z,7.24
2018-04-18T01:32:03.030Z,7.29
2018-04-18T01:33:02.921Z,7.25
2018-04-18T01:34:02.909Z,7.20
2018-04-18T01:35:02.863Z,7.18
2018-04-18T01:36:02.878Z,7.13
2018-04-18T01:37:02.824Z,7.10
2018-04-18T01:38:02.829Z,6.99
2018-04-18T01:39:02.838Z,7.03
2018-04-18T01:40:02.778Z,7.02
2018-04-18T01:41:02.809Z,6.88
2018-04-18T01:42:02.730Z,6.87
2018-04-18T01:43:02.716Z,6.99
2018-04-18T01:44:02.677Z,6.88
2018-04-18T01:45:02.731Z,7.02
2018-04-18T01:46:02.685Z,6.89
2018-04-18T01:47:02.688Z,6.92
2018-04-18T01:48:02.605Z,7.03
2018-04-18T01:49:02.621Z,7.00
2018-04-18T01:50:02.565Z,6.93
2018-04-18T01:51:02.525Z,6.88
2018-04-18T01:52:02.533Z,6.92
2018-04-18T01:53:02.496Z,6.89
2018-04-18T01:54:02.451Z,6.92
2018-04-18T01:55:02.516Z,6.85
2018-04-18T01:56:02.454Z,6.88
2018-04-18T01:57:02.466Z,6.88
2018-04-18T01:58:02.449Z,6.93
2018-04-18T01:59:02.376Z,6.89
2018-04-18T02:00:02.373Z,6.88
2018-04-18T02:01:02.340Z,6.92
2018-04-18T02:02:02.292Z,6.78
2018-04-18T02:03:02.291Z,6.85
2018-04-18T02:04:02.336Z,6.74
2018-04-18T02:05:02.263Z,6.75
2018-04-18T02:06:02.229Z,6.75
2018-04-18T02:07:02.227Z,6.75
2018-04-18T02:08:03.189Z,6.67
2018-04-18T02:09:02.145Z,6.78
2018-04-18T02:10:02.192Z,6.72
2018-04-18T02:11:02.114Z,6.70
2018-04-18T02:12:02.120Z,6.69
2018-04-18T02:13:02.111Z,6.74
2018-04-18T02:14:02.056Z,6.69
2018-04-18T02:15:02.037Z,6.69
2018-04-18T02:16:02.061Z,6.78
2018-04-18T02:17:02.020Z,6.74
2018-04-18T02:18:01.979Z,6.64
2018-04-18T02:19:01.959Z,6.70
2018-04-18T02:20:01.954Z,6.69
2018-04-18T02:21:01.970Z,6.72
2018-04-18T02:22:01.867Z,6.69
2018-04-18T02:23:01.903Z,6.74
2018-04-18T02:24:01.830Z,6.64
2018-04-18T02:25:02.728Z,6.72
2018-04-18T02:26:02.666Z,6.75
2018-04-18T02:27:02.089Z,6.62
2018-04-18T02:28:02.207Z,6.69
2018-04-18T02:29:02.642Z,6.70
2018-04-18T02:30:01.992Z,6.84
2018-04-18T02:31:01.716Z,6.60
2018-04-18T02:32:01.684Z,6.70
2018-04-18T02:33:01.660Z,6.79
2018-04-18T02:34:01.643Z,6.67
2018-04-18T02:35:01.609Z,6.72
2018-04-18T02:36:01.608Z,6.79
2018-04-18T02:37:01.574Z,6.74
2018-04-18T02:38:01.571Z,6.70
2018-04-18T02:39:01.567Z,6.77
2018-04-18T02:40:01.537Z,6.72
2018-04-18T02:41:01.490Z,6.77
2018-04-18T02:42:01.494Z,6.60
2018-04-18T02:43:01.453Z,6.70
2018-04-18T02:44:01.462Z,6.74
2018-04-18T02:45:01.432Z,6.69
2018-04-18T02:46:01.368Z,6.60
2018-04-18T02:47:02.198Z,6.69
2018-04-18T02:48:01.342Z,6.70
2018-04-18T02:49:01.338Z,6.66
2018-04-18T02:50:01.323Z,6.64
2018-04-18T02:51:01.354Z,6.78
2018-04-18T02:52:01.284Z,6.75
2018-04-18T02:53:01.282Z,6.64
2018-04-18T02:54:01.274Z,6.75
2018-04-18T02:55:01.202Z,6.69
2018-04-18T02:56:01.194Z,6.70
2018-04-18T02:57:01.203Z,6.66
2018-04-18T02:58:01.131Z,6.69
2018-04-18T02:59:01.115Z,6.64
2018-04-18T03:00:01.088Z,6.59
2018-04-18T03:01:01.050Z,6.62
2018-04-18T03:02:01.097Z,6.60
2018-04-18T03:03:01.039Z,6.56
2018-04-18T03:04:00.989Z,6.56
2018-04-18T03:05:00.996Z,6.54
2018-04-18T03:06:00.953Z,6.56
2018-04-18T03:07:01.015Z,6.57
2018-04-18T03:08:00.961Z,6.49
2018-04-18T03:09:00.932Z,6.46
2018-04-18T03:10:00.882Z,6.44
2018-04-18T03:11:00.857Z,6.44
2018-04-18T03:12:00.845Z,6.48
2018-04-18T03:13:00.831Z,6.44
2018-04-18T03:14:00.820Z,6.41
2018-04-18T03:15:00.792Z,6.41
2018-04-18T03:16:00.783Z,6.38
2018-04-18T03:17:00.747Z,6.44
2018-04-18T03:18:00.731Z,6.46
2018-04-18T03:19:00.708Z,6.39
2018-04-18T03:20:00.725Z,6.44
2018-04-18T03:21:00.649Z,6.42
2018-04-18T03:22:00.675Z,6.39
2018-04-18T03:23:00.662Z,6.39
2018-04-18T03:24:00.598Z,6.35
2018-04-18T03:25:00.553Z,6.31
2018-04-18T03:26:01.202Z,6.26
2018-04-18T03:27:00.505Z,6.26
2018-04-18T03:28:00.571Z,6.24
2018-04-18T03:29:00.473Z,6.22
2018-04-18T03:30:00.519Z,6.22
2018-04-18T03:31:00.513Z,6.26
2018-04-18T03:32:00.411Z,6.07
2018-04-18T03:33:00.434Z,6.20
2018-04-18T03:34:00.526Z,6.11
2018-04-18T03:35:00.516Z,6.24
2018-04-18T03:36:00.356Z,6.08
2018-04-18T03:37:00.397Z,6.17
2018-04-18T03:38:00.585Z,6.09
2018-04-18T03:39:00.421Z,6.07
2018-04-18T03:40:00.632Z,6.08
2018-04-18T03:41:00.330Z,6.04
2018-04-18T03:42:00.477Z,6.09
2018-04-18T03:43:00.258Z,5.97
2018-04-18T03:44:00.184Z,5.99
2018-04-18T03:45:00.149Z,6.01
2018-04-18T03:46:00.210Z,6.02
2018-04-18T03:47:00.172Z,5.87
2018-04-18T03:48:00.118Z,5.91
2018-04-18T03:49:00.024Z,5.97
2018-04-18T03:50:00.063Z,5.99
2018-04-18T03:51:00.058Z,5.90
2018-04-18T03:52:00.460Z,5.90
2018-04-18T03:53:02.615Z,5.84
2018-04-18T03:54:00.230Z,5.87
2018-04-18T03:54:59.961Z,5.84
2018-04-18T03:56:00.064Z,5.80
2018-04-18T03:56:59.942Z,5.82
2018-04-18T03:57:59.892Z,5.86
2018-04-18T03:58:59.845Z,5.83
2018-04-18T03:59:59.812Z,5.83
2018-04-18T04:00:59.854Z,5.75
2018-04-18T04:01:59.805Z,5.71
2018-04-18T04:02:59.803Z,5.75
2018-04-18T04:03:59.802Z,5.66
2018-04-18T04:04:59.726Z,5.71
2018-04-18T04:05:59.747Z,5.73
2018-04-18T04:06:59.705Z,5.69
2018-04-18T04:07:59.667Z,5.73
2018-04-18T04:08:59.643Z,5.65
2018-04-18T04:09:59.632Z,5.62
2018-04-18T04:10:59.647Z,5.66
2018-04-18T04:11:59.572Z,5.61
2018-04-18T04:12:59.567Z,5.56
2018-04-18T04:13:59.570Z,5.56
2018-04-18T04:14:59.511Z,5.56
2018-04-18T04:15:59.559Z,5.50
2018-04-18T04:16:59.466Z,5.61
2018-04-18T04:17:59.455Z,5.64
2018-04-18T04:18:59.420Z,5.61
2018-04-18T04:19:59.497Z,5.56
2018-04-18T04:20:59.410Z,5.64
2018-04-18T04:21:59.384Z,5.66
2018-04-18T04:23:01.763Z,5.65
2018-04-18T04:23:59.335Z,5.64
2018-04-18T04:24:59.293Z,5.64
2018-04-18T04:25:59.330Z,5.66
2018-04-18T04:26:59.290Z,5.62
2018-04-18T04:27:59.360Z,5.56
2018-04-18T04:28:59.295Z,5.62
2018-04-18T04:29:59.164Z,5.59
2018-04-18T04:30:59.279Z,5.61
2018-04-18T04:31:59.278Z,5.57
2018-04-18T04:32:59.188Z,5.62
2018-04-18T04:33:59.158Z,5.57
2018-04-18T04:34:59.109Z,5.65
2018-04-18T04:35:59.189Z,5.56
2018-04-18T04:36:59.126Z,5.56
2018-04-18T04:37:59.024Z,5.53
2018-04-18T04:38:59.113Z,5.54
2018-04-18T04:39:58.998Z,5.61
2018-04-18T04:40:58.941Z,5.57
2018-04-18T04:41:58.953Z,5.61
2018-04-18T04:42:58.888Z,5.56
2018-04-18T04:43:58.837Z,5.59
2018-04-18T04:44:58.880Z,5.62
2018-04-18T04:45:58.872Z,5.66
2018-04-18T04:46:58.866Z,5.65
2018-04-18T04:47:58.782Z,5.66
2018-04-18T04:48:58.734Z,5.68
2018-04-18T04:49:58.776Z,5.73
2018-04-18T04:50:58.688Z,5.71
2018-04-18T04:51:58.749Z,5.69
2018-04-18T04:52:58.705Z,5.72
2018-04-18T04:53:58.635Z,5.76
2018-04-18T04:54:58.612Z,5.68
2018-04-18T04:55:58.625Z,5.76
2018-04-18T04:56:58.620Z,5.71
2018-04-18T04:57:58.534Z,5.79
2018-04-18T04:58:58.563Z,5.79
2018-04-18T04:59:58.531Z,5.86
2018-04-18T05:00:58.507Z,5.82
2018-04-18T05:01:58.510Z,5.79
2018-04-18T05:02:58.465Z,5.91
2018-04-18T05:03:58.404Z,5.93
2018-04-18T05:04:58.810Z,5.91
2018-04-18T05:05:58.407Z,6.01
2018-04-18T05:06:58.503Z,6.07
2018-04-18T05:07:58.427Z,6.07
2018-04-18T05:08:58.391Z,6.04
2018-04-18T05:09:58.389Z,6.14
2018-04-18T05:10:58.344Z,6.08
2018-04-18T05:11:58.422Z,6.11
2018-04-18T05:12:58.409Z,6.17
2018-04-18T05:13:58.328Z,6.22
2018-04-18T05:14:58.239Z,6.20
2018-04-18T05:15:58.484Z,6.22
2018-04-18T05:16:58.255Z,6.28
2018-04-18T05:17:58.169Z,6.33
2018-04-18T05:18:58.223Z,6.35
2018-04-18T05:19:58.177Z,6.44
2018-04-18T05:20:58.212Z,6.41
2018-04-18T05:21:58.089Z,6.41
2018-04-18T05:22:58.129Z,6.42
2018-04-18T05:23:58.078Z,6.35
2018-04-18T05:24:57.981Z,6.39
2018-04-18T05:25:58.068Z,6.49
2018-04-18T05:26:58.025Z,6.49
2018-04-18T05:27:57.976Z,6.51
2018-04-18T05:29:00.796Z,6.59
2018-04-18T05:29:57.857Z,6.69
2018-04-18T05:30:57.883Z,6.62
2018-04-18T05:31:57.935Z,6.69
2018-04-18T05:32:57.783Z,6.70
2018-04-18T05:33:57.765Z,6.70
2018-04-18T05:36:19.716Z,6.74
2018-04-18T05:37:19.594Z,6.75
2018-04-18T05:38:20.113Z,6.75
2018-04-18T05:39:19.583Z,6.82
2018-04-18T05:40:19.112Z,6.87
2018-04-18T05:41:19.091Z,6.87
2018-04-18T05:42:19.641Z,6.79
2018-04-18T05:43:18.819Z,6.89
2018-04-18T05:44:18.607Z,6.93
2018-04-18T05:45:18.609Z,7.06
2018-04-18T05:46:18.560Z,7.32
2018-04-18T05:49:53.497Z,8.79
2018-04-18T05:50:53.977Z,9.31
2018-04-18T05:52:48.758Z,9.72
2018-04-18T05:53:47.783Z,9.72
2018-04-18T05:54:47.730Z,9.64
2018-04-18T05:55:48.235Z,9.62
2018-04-18T05:56:48.591Z,9.61
2018-04-18T05:57:47.989Z,9.77
2018-04-18T05:58:48.202Z,9.72
2018-04-18T05:59:47.652Z,9.73
2018-04-18T06:00:47.555Z,9.72
2018-04-18T06:01:47.360Z,9.65
2018-04-18T06:02:47.144Z,9.69
2018-04-18T06:03:47.573Z,9.62
2018-04-18T06:04:47.474Z,9.68
2018-04-18T06:33:49.089Z,23.48
2018-04-18T06:34:41.616Z,23.68
2018-04-18T06:35:40.233Z,23.99
2018-04-18T06:36:40.339Z,24.20
2018-04-18T06:37:40.672Z,24.40
2018-04-18T06:38:40.254Z,24.78
2018-04-18T06:39:40.145Z,25.13
2018-04-18T06:40:40.419Z,25.47
2018-04-18T07:54:35.617Z,36.18
2018-04-18T07:55:34.971Z,36.35
2018-04-18T08:03:58.584Z,37.14
2018-04-18T09:58:33.706Z,46.20
2018-04-18T09:59:33.583Z,46.22
2018-04-18T10:00:33.670Z,46.36
2018-04-18T10:01:34.136Z,46.45
2018-04-18T10:02:33.486Z,46.12
2018-04-18T10:03:33.538Z,45.75
2018-04-18T10:04:33.508Z,45.82
2018-04-18T10:05:34.142Z,46.10
2018-04-18T10:06:33.535Z,46.34
2018-04-18T10:07:34.200Z,46.67
2018-04-18T10:08:34.043Z,46.85
2018-04-18T10:09:33.247Z,47.14
2018-04-18T10:10:33.361Z,47.44
2018-04-18T10:11:33.233Z,47.49
2018-04-18T10:12:33.473Z,47.52
2018-04-18T10:13:33.932Z,47.71
2018-04-18T10:14:33.777Z,47.61
2018-04-18T10:15:33.477Z,47.84
2018-04-18T10:16:33.502Z,47.99
2018-04-18T10:17:33.304Z,47.93
2018-04-18T10:18:33.315Z,47.95
2018-04-18T10:19:33.291Z,48.10
2018-04-18T10:20:33.545Z,48.14
2018-04-18T10:21:33.269Z,47.91
2018-04-18T10:22:33.245Z,47.68
2018-04-18T10:23:33.339Z,47.39
2018-04-18T10:24:33.292Z,47.14
2018-04-18T10:25:33.257Z,47.29
2018-04-18T10:26:33.343Z,47.41
2018-04-18T10:27:33.268Z,47.74
2018-04-18T10:28:33.298Z,47.98
2018-04-18T10:29:33.277Z,48.09
2018-04-18T10:30:33.332Z,48.15
2018-04-18T10:31:33.344Z,48.37
2018-04-18T10:32:33.294Z,48.50
2018-04-18T10:33:33.280Z,48.52
2018-04-18T10:34:33.325Z,48.66
2018-04-18T10:35:33.310Z,48.86
2018-04-18T10:36:33.352Z,48.71
2018-04-18T10:37:33.325Z,48.21
2018-04-18T10:38:33.316Z,47.99
2018-04-18T10:39:33.332Z,47.52
2018-04-18T10:40:33.334Z,47.45
2018-04-18T10:41:33.337Z,47.54
2018-04-18T10:42:33.373Z,47.72
2018-04-18T10:43:33.356Z,48.02
2018-04-18T10:44:34.063Z,48.25
2018-04-18T10:45:33.374Z,48.07
2018-04-18T10:46:34.037Z,47.77
2018-04-18T10:47:33.547Z,47.46
2018-04-18T10:48:33.901Z,47.26
2018-04-18T10:49:33.388Z,47.11
2018-04-18T10:50:33.382Z,46.58
2018-04-18T10:51:33.382Z,46.42
2018-04-18T10:52:33.387Z,46.61
2018-04-18T10:53:33.398Z,46.47
2018-04-18T10:54:33.455Z,46.31
2018-04-18T10:55:33.554Z,46.13
2018-04-18T10:56:33.468Z,46.22
2018-04-18T10:57:33.952Z,46.23
2018-04-18T10:58:33.470Z,46.45
2018-04-18T10:59:33.445Z,46.51
2018-04-18T11:00:33.455Z,46.80
2018-04-18T11:01:33.467Z,47.20
2018-04-18T11:02:33.684Z,47.45
2018-04-18T11:03:33.579Z,47.53
2018-04-18T11:04:33.491Z,47.37
2018-04-18T11:05:33.510Z,47.42
2018-04-18T11:06:33.498Z,47.46
2018-04-18T11:07:33.562Z,47.58
2018-04-18T11:08:33.504Z,47.66
2018-04-18T11:09:33.501Z,47.90
2018-04-18T11:10:33.712Z,47.99
2018-04-18T11:11:33.677Z,47.84
2018-04-18T11:12:33.562Z,47.54
2018-04-18T11:13:33.624Z,47.18
2018-04-18T11:14:33.543Z,47.22
2018-04-18T11:15:33.584Z,47.39
2018-04-18T11:16:33.699Z,47.66
2018-04-18T11:17:33.668Z,47.75
2018-04-18T11:18:33.830Z,48.09
2018-04-18T11:19:33.563Z,48.31
2018-04-18T11:20:33.617Z,48.36
2018-04-18T11:21:33.619Z,48.29
2018-04-18T11:22:33.770Z,48.14
2018-04-18T11:23:33.588Z,48.07
2018-04-18T11:24:33.606Z,47.72
2018-04-18T11:25:33.634Z,47.84
2018-04-18T11:26:33.709Z,47.90
2018-04-18T11:27:33.639Z,48.10
2018-04-18T11:28:33.645Z,48.26
2018-04-18T11:29:33.657Z,48.18
2018-04-18T11:30:33.692Z,48.09
2018-04-18T11:31:33.859Z,47.96
2018-04-18T11:32:33.851Z,47.91
2018-04-18T11:33:33.742Z,47.78
2018-04-18T11:34:33.675Z,47.49
2018-04-18T11:35:33.688Z,47.03
2018-04-18T11:36:33.649Z,46.70
2018-04-18T11:37:33.732Z,46.77
2018-04-18T11:38:33.687Z,47.01
2018-04-18T11:39:33.713Z,47.01
2018-04-18T11:40:33.703Z,47.27
2018-04-18T11:41:35.504Z,47.44
2018-04-18T11:42:33.694Z,47.45
2018-04-18T11:43:33.680Z,47.53
2018-04-18T11:44:33.645Z,47.71
2018-04-18T11:45:33.751Z,47.74
2018-04-18T11:46:33.684Z,47.91
2018-04-18T11:47:33.691Z,48.12
2018-04-18T11:48:33.682Z,48.17
2018-04-18T11:49:33.767Z,47.77
2018-04-18T11:50:33.727Z,47.66
2018-04-18T11:51:33.700Z,47.54
2018-04-18T11:52:33.711Z,47.33
2018-04-18T11:53:33.750Z,47.14
2018-04-18T11:54:33.726Z,47.01
2018-04-18T11:55:33.736Z,47.13
2018-04-18T11:56:33.954Z,47.10
2018-04-18T11:57:33.888Z,46.98
2018-04-18T11:58:34.019Z,47.06
2018-04-18T11:59:33.977Z,47.13
2018-04-18T12:00:34.048Z,47.39
2018-04-18T12:01:34.261Z,47.50
2018-04-18T12:02:34.599Z,47.42
2018-04-18T12:03:34.599Z,47.33
2018-04-18T12:04:34.515Z,47.58
2018-04-18T12:05:34.151Z,47.86
2018-04-18T12:06:34.759Z,47.91
2018-04-18T12:07:33.892Z,47.78
2018-04-18T12:08:34.046Z,47.65
2018-04-18T12:09:33.897Z,47.68
2018-04-18T12:10:33.843Z,47.59
2018-04-18T12:11:33.780Z,47.58
2018-04-18T12:12:33.743Z,47.72
2018-04-18T12:13:34.392Z,47.83
2018-04-18T12:14:33.795Z,47.75
2018-04-18T12:15:34.192Z,47.53
2018-04-18T12:16:33.931Z,47.54
2018-04-18T12:17:33.964Z,47.53
2018-04-18T12:18:34.105Z,47.50
2018-04-18T12:19:34.531Z,47.27
2018-04-18T12:20:34.020Z,47.41
2018-04-18T12:21:33.946Z,47.11
2018-04-18T12:22:33.810Z,46.82
2018-04-18T12:23:34.060Z,46.38
2018-04-18T12:24:33.813Z,46.01
2018-04-18T12:25:33.828Z,45.96
2018-04-18T12:26:33.833Z,46.01
2018-04-18T12:27:33.819Z,45.74
2018-04-18T12:28:33.832Z,45.77
2018-04-18T12:29:33.794Z,45.70
2018-04-18T12:30:33.832Z,45.80
2018-04-18T12:31:33.803Z,45.61
2018-04-18T12:32:33.846Z,45.77
2018-04-18T12:33:33.825Z,46.00
2018-04-18T12:34:33.850Z,46.41
2018-04-18T12:35:33.921Z,46.43
2018-04-18T12:36:33.834Z,46.58
2018-04-18T12:37:33.871Z,46.76
2018-04-18T12:38:33.824Z,46.77
2018-04-18T12:39:33.827Z,46.45
2018-04-18T12:40:33.848Z,46.32
2018-04-18T12:41:33.857Z,46.31
2018-04-18T12:42:33.873Z,46.08
2018-04-18T12:43:33.876Z,46.17
2018-04-18T12:44:33.852Z,46.38
2018-04-18T12:45:33.869Z,46.57
2018-04-18T12:46:33.859Z,46.74
2018-04-18T12:47:33.854Z,46.32
2018-04-18T12:48:33.862Z,45.74
2018-04-18T12:49:33.867Z,45.22
2018-04-18T12:50:33.886Z,45.25
2018-04-18T12:51:33.893Z,45.32
2018-04-18T12:52:33.897Z,45.32
2018-04-18T12:53:33.900Z,45.31
2018-04-18T12:54:33.913Z,45.05
2018-04-18T12:55:33.905Z,44.94
2018-04-18T12:56:33.948Z,44.93
2018-04-18T12:57:33.883Z,44.86
2018-04-18T12:58:33.879Z,44.78
2018-04-18T12:59:33.896Z,44.93
2018-04-18T13:00:33.860Z,45.12
2018-04-18T13:01:33.855Z,45.37
2018-04-18T13:02:33.942Z,45.55
2018-04-18T13:03:33.973Z,45.62
2018-04-18T13:04:33.923Z,45.51
2018-04-18T13:05:33.926Z,45.27
2018-04-18T13:06:33.908Z,45.06
2018-04-18T13:07:34.079Z,45.05
2018-04-18T13:08:33.899Z,44.84
2018-04-18T13:09:33.919Z,44.64
2018-04-18T13:10:33.997Z,44.71
2018-04-18T13:11:33.922Z,44.83
2018-04-18T13:12:33.869Z,44.69
2018-04-18T13:13:33.925Z,44.45
2018-04-18T13:14:33.934Z,44.32
2018-04-18T13:15:33.868Z,43.96
2018-04-18T13:16:33.937Z,43.67
2018-04-18T13:17:33.968Z,43.69
2018-04-18T13:18:33.963Z,43.91
2018-04-18T13:19:33.901Z,44.06
2018-04-18T13:20:33.893Z,44.17
2018-04-18T13:21:33.935Z,44.54
2018-04-18T13:22:33.892Z,44.69
2018-04-18T13:23:33.911Z,45.08
2018-04-18T13:24:33.917Z,45.27
2018-04-18T13:25:33.960Z,45.58
2018-04-18T13:26:33.907Z,45.59
2018-04-18T13:27:34.053Z,45.50
2018-04-18T13:28:33.987Z,45.34
2018-04-18T13:29:33.877Z,45.35
2018-04-18T13:30:34.277Z,45.12
2018-04-18T13:31:33.987Z,44.98
2018-04-18T13:32:33.913Z,44.94
2018-04-18T13:33:33.991Z,45.16
2018-04-18T13:34:33.954Z,45.20
2018-04-18T13:35:33.956Z,45.10
2018-04-18T13:36:34.000Z,45.05
2018-04-18T13:37:33.937Z,44.79
2018-04-18T13:38:36.763Z,44.37
2018-04-18T13:39:34.016Z,44.01
2018-04-18T13:40:34.974Z,43.67
2018-04-18T13:41:33.906Z,43.79
2018-04-18T13:42:34.016Z,43.89
2018-04-18T13:43:34.589Z,43.74
2018-04-18T13:44:33.946Z,43.46
2018-04-18T13:45:33.957Z,43.28
2018-04-18T13:46:33.957Z,43.36
2018-04-18T13:47:33.975Z,43.23
2018-04-18T13:48:33.914Z,42.99
2018-04-18T13:49:33.930Z,42.63
2018-04-18T13:50:33.911Z,42.41
2018-04-18T13:51:33.987Z,42.29
2018-04-18T13:52:34.141Z,42.10
2018-04-18T13:53:34.192Z,42.31
2018-04-18T13:54:33.992Z,42.43
2018-04-18T13:55:34.066Z,42.43
2018-04-18T13:56:34.312Z,42.25
2018-04-18T13:57:33.932Z,42.10
2018-04-18T13:58:33.922Z,42.10
2018-04-18T13:59:34.182Z,42.38
2018-04-18T14:00:34.073Z,42.63
2018-04-18T14:01:34.167Z,43.04
2018-04-18T14:02:33.950Z,43.13
2018-04-18T14:03:33.978Z,43.16
2018-04-18T14:04:34.072Z,42.79
2018-04-18T14:05:33.981Z,42.82
2018-04-18T14:06:38.688Z,42.95
2018-04-18T14:07:33.902Z,43.01
2018-04-18T14:08:34.093Z,43.13
2018-04-18T14:09:34.024Z,43.13
2018-04-18T14:10:34.054Z,43.20
2018-04-18T14:11:34.029Z,43.19
2018-04-18T14:12:34.043Z,43.26
2018-04-18T14:13:33.948Z,43.27
2018-04-18T14:14:34.249Z,43.30
2018-04-18T14:15:34.474Z,43.33
2018-04-18T14:16:35.003Z,42.99
2018-04-18T14:17:33.917Z,42.58
2018-04-18T14:18:34.262Z,42.25
2018-04-18T14:19:33.926Z,41.99
2018-04-18T14:20:34.332Z,41.77
2018-04-18T14:21:33.944Z,41.49
2018-04-18T14:22:34.243Z,41.43
2018-04-18T14:23:33.907Z,41.47
2018-04-18T14:24:34.590Z,41.62
2018-04-18T14:25:34.249Z,41.50
2018-04-18T14:26:34.624Z,41.25
2018-04-18T14:27:35.511Z,41.06
2018-04-18T14:28:34.750Z,40.66
2018-04-18T14:29:33.908Z,40.05
2018-04-18T14:30:33.884Z,39.58
2018-04-18T14:31:33.903Z,38.79
2018-04-18T14:32:33.943Z,38.12
2018-04-18T14:33:33.877Z,37.25
2018-04-18T14:34:35.731Z,36.55
2018-04-18T14:35:34.084Z,35.93
2018-04-18T14:36:33.892Z,35.48
2018-04-18T14:37:33.927Z,34.93
2018-04-18T14:38:33.846Z,34.45
2018-04-18T14:39:33.865Z,34.16
2018-04-18T14:40:33.837Z,33.80
2018-04-18T14:41:33.865Z,33.42
2018-04-18T14:42:33.903Z,33.08
2018-04-18T14:43:33.878Z,32.67
2018-04-18T14:44:33.869Z,32.27
2018-04-18T14:45:33.965Z,31.94
2018-04-18T14:46:36.593Z,31.44
2018-04-18T14:47:35.437Z,31.14
2018-04-18T15:06:04.125Z,28.85
2018-04-18T15:20:48.791Z,27.74
2018-04-18T15:21:48.167Z,27.68
2018-04-18T15:22:48.168Z,27.65
2018-04-18T15:23:47.964Z,27.64
2018-04-18T15:24:49.296Z,27.63
2018-04-18T15:25:48.895Z,27.55
2018-04-18T15:26:48.276Z,27.45
2018-04-18T15:27:48.065Z,27.39
2018-04-18T15:28:47.953Z,27.42
2018-04-18T15:29:48.091Z,27.33
2018-04-18T15:30:48.085Z,27.29
2018-04-18T15:31:48.041Z,27.25
2018-04-18T15:32:48.114Z,27.30
2018-04-18T15:33:48.051Z,27.18
2018-04-18T15:34:48.253Z,27.22
2018-04-18T15:35:47.896Z,27.08
2018-04-18T15:36:47.870Z,27.12
2018-04-18T15:37:47.843Z,27.00
2018-04-18T15:38:47.808Z,27.02
2018-04-18T15:39:47.793Z,27.07
2018-04-18T15:40:47.766Z,26.90
2018-04-18T15:41:47.842Z,26.90
2018-04-18T15:42:47.781Z,26.78
2018-04-18T15:43:47.756Z,26.73
2018-04-18T15:44:47.724Z,26.68
2018-04-18T15:45:47.804Z,26.55
2018-04-18T15:46:47.698Z,26.44
2018-04-18T15:47:47.714Z,26.48
2018-04-18T15:48:47.918Z,26.38
2018-04-18T15:49:47.708Z,26.41
2018-04-18T15:50:49.459Z,26.36
2018-04-18T15:51:47.678Z,26.33
2018-04-18T15:52:47.715Z,26.37
2018-04-18T15:53:47.644Z,26.40
2018-04-18T15:54:47.589Z,26.36
2018-04-18T15:55:47.602Z,26.26
2018-04-18T15:56:47.609Z,26.22
2018-04-18T15:57:47.674Z,26.15
2018-04-18T15:58:47.599Z,26.10
2018-04-18T15:59:47.596Z,26.02
2018-04-18T16:00:47.541Z,26.03
2018-04-18T16:01:47.605Z,26.05
2018-04-18T16:02:47.920Z,25.99
2018-04-18T16:03:47.577Z,25.91
2018-04-18T16:04:47.545Z,25.84
2018-04-18T16:05:47.489Z,25.83
2018-04-18T16:06:47.545Z,25.77
2018-04-18T16:07:47.574Z,25.66
2018-04-18T16:08:47.737Z,25.66
2018-04-18T16:09:47.453Z,25.65
2018-04-18T16:10:48.484Z,25.54
2018-04-18T16:11:47.373Z,25.54
2018-04-18T16:12:47.394Z,25.47
2018-04-18T16:13:47.367Z,25.38
2018-04-18T16:14:47.440Z,25.43
2018-04-18T16:15:47.381Z,25.41
2018-04-18T16:16:47.335Z,25.40
2018-04-18T16:17:47.496Z,25.22
2018-04-18T16:18:47.331Z,25.31
2018-04-18T16:19:47.398Z,25.21
2018-04-18T16:20:47.340Z,25.13
2018-04-18T16:21:47.351Z,25.11
2018-04-18T16:22:47.691Z,25.11
2018-04-18T16:23:47.480Z,25.16
2018-04-18T16:24:48.292Z,25.08
2018-04-18T16:25:47.365Z,25.13
2018-04-18T16:26:47.700Z,25.16
2018-04-18T16:27:47.272Z,25.17
2018-04-18T16:28:47.231Z,25.10
2018-04-18T16:29:47.776Z,25.13
2018-04-18T16:30:47.289Z,25.01
2018-04-18T16:31:47.243Z,25.01
2018-04-18T16:32:47.205Z,24.93
2018-04-18T16:33:47.216Z,24.85
2018-04-18T16:34:47.230Z,24.81
2018-04-18T16:35:47.090Z,24.81
2018-04-18T16:36:47.154Z,24.77
2018-04-18T16:37:47.129Z,24.81
2018-04-18T16:38:47.164Z,24.68
2018-04-18T16:39:47.148Z,24.69
2018-04-18T16:40:47.066Z,24.65
2018-04-18T16:41:48.000Z,24.60
2018-04-18T16:42:47.087Z,24.48
2018-04-18T16:43:46.989Z,24.45
2018-04-18T16:44:47.084Z,24.40
2018-04-18T16:45:47.166Z,24.35
2018-04-18T16:46:46.999Z,24.30
2018-04-18T16:47:47.239Z,24.33
2018-04-18T16:48:47.008Z,24.35
2018-04-18T16:49:47.016Z,24.23
2018-04-18T16:50:46.941Z,24.26
2018-04-18T16:51:46.923Z,24.29
2018-04-18T16:52:47.017Z,24.17
2018-04-18T16:53:46.904Z,24.08
2018-04-18T16:54:46.958Z,24.05
2018-04-18T16:55:46.959Z,23.98
2018-04-18T16:56:47.294Z,23.91
2018-04-18T16:57:46.945Z,23.78
2018-04-18T16:58:51.914Z,23.83
2018-04-18T16:59:46.831Z,23.66
2018-04-18T17:00:47.508Z,23.68
2018-04-18T17:01:46.903Z,23.63
2018-04-18T17:02:47.940Z,23.59
2018-04-18T17:03:46.814Z,23.55
2018-04-18T17:04:46.798Z,23.46
2018-04-18T17:05:47.255Z,23.43
2018-04-18T17:06:46.811Z,23.36
2018-04-18T17:07:46.786Z,23.25
2018-04-18T17:08:46.722Z,23.25
2018-04-18T17:09:46.812Z,23.06
2018-04-18T17:10:46.878Z,23.08
2018-04-18T17:11:46.742Z,22.96
2018-04-18T17:12:46.668Z,22.83
2018-04-18T17:13:46.960Z,22.84
2018-04-18T17:14:46.672Z,22.70
2018-04-18T17:15:46.668Z,22.51
2018-04-18T17:16:46.638Z,22.41
2018-04-18T17:17:46.583Z,22.35
2018-04-18T17:18:46.628Z,22.44
2018-04-18T17:19:46.621Z,22.28
2018-04-18T17:20:46.623Z,22.20
2018-04-18T17:21:49.390Z,22.15